This is the latest recevied weather packets stored in our database for station/object SQ3VAS-10. If no packets are shown the sender has not sent any weather packets the latest 10 day(s).
| Time | Temp. | Humidity | Pressure | Rain* | Wind** | Luminosity | Snow |
|---|---|---|---|---|---|---|---|
| 1777883695 | 21.11° C | 56% | 1012.1 hPa | - | - | - | - |
| 1777883122 | 20.56° C | 57% | 1012 hPa | - | - | - | - |
| 1777882548 | 20.56° C | 58% | 1012.1 hPa | - | - | - | - |
| 1777881976 | 20.56° C | 57% | 1012.1 hPa | - | - | - | - |
| 1777881402 | 21.11° C | 55% | 1012 hPa | - | - | - | - |
| 1777880830 | 21.11° C | 55% | 1012 hPa | - | - | - | - |
| 1777880258 | 21.11° C | 54% | 1011.8 hPa | - | - | - | - |
| 1777879689 | 21.67° C | 51% | 1011.7 hPa | - | - | - | - |
| 1777879118 | 22.78° C | 47% | 1011.4 hPa | - | - | - | - |
| 1777878541 | 22.78° C | 46% | 1011.5 hPa | - | - | - | - |
| 1777877970 | 22.78° C | 47% | 1011.6 hPa | - | - | - | - |
| 1777877391 | 21.67° C | 49% | 1011.7 hPa | - | - | - | - |
| 1777876818 | 19.44° C | 56% | 1011.9 hPa | - | - | - | - |
| 1777876245 | 20° C | 57% | 1011.8 hPa | - | - | - | - |
| 1777875672 | 20° C | 58% | 1011.7 hPa | - | - | - | - |
| 1777875099 | 18.89° C | 60% | 1011.7 hPa | - | - | - | - |
| 1777874526 | 18.33° C | 62% | 1011.5 hPa | - | - | - | - |
| 1777873952 | 18.33° C | 60% | 1011.4 hPa | - | - | - | - |
| 1777873379 | 18.89° C | 60% | 1011 hPa | - | - | - | - |
| 1777872807 | 18.33° C | 59% | 1011.3 hPa | - | - | - | - |
| 1777872235 | 18.33° C | 58% | 1011.5 hPa | - | - | - | - |
| 1777871662 | 18.89° C | 55% | 1011.3 hPa | - | - | - | - |
| 1777871091 | 18.33° C | 55% | 1011.3 hPa | - | - | - | - |
| 1777870517 | 18.33° C | 55% | 1011.2 hPa | - | - | - | - |
| 1777869945 | 17.78° C | 56% | 1011.2 hPa | - | - | - | - |
* Rain since midnight (hover to see other rain measurements)
** Current wind speed in m/s (hover to see current wind gust speed)